Time;durP1;ratioP1;P1;durP2;ratioP2;P2;SDS_P1;SDS_P2;PMS_P1;PMS_P2;Temp;Humidity;BMP_temperature;BMP_pressure;BME280_temperature;BME280_humidity;BME280_pressure;Samples;Min_cycle;Max_cycle;Signal;HPM_P1;HPM_P2
2023/01/11 00:00:04;;;;;;;;;;;;;;;18.90;44.68;100615.63;5150532;27;19923;-51
2023/01/11 00:02:31;;;;;;;;;;;;;;;18.91;44.65;100608.16;5152877;27;19930;-54
2023/01/11 00:04:56;;;;;;;;;;;;;;;18.90;44.66;100604.59;5152643;27;19958;-53
2023/01/11 00:07:22;;;;;;;;;;;;;;;18.89;44.95;100613.97;5142826;27;19930;-53
2023/01/11 00:09:48;;;;;;;;;;;;;;;18.89;44.67;100602.94;5113947;28;19927;-55
2023/01/11 00:12:14;;;;;;;;;;;;;;;18.89;44.70;100608.47;5132408;28;20161;-53
2023/01/11 00:14:39;;;;;;;;;;;;;;;18.88;44.90;100598.53;5131896;28;19928;-52
2023/01/11 00:17:05;;;;;;;;;;;;;;;18.90;45.10;100589.97;5145595;27;20395;-53
2023/01/11 00:19:30;;;;;;;;;;;;;;;18.89;44.64;100597.44;5131845;28;19927;-53
2023/01/11 00:21:56;;;;;;;;;;;;;;;18.90;44.72;100598.25;5131637;28;19924;-54
2023/01/11 00:24:21;;;;;;;;;;;;;;;18.89;44.83;100591.09;5131351;28;19971;-52
2023/01/11 00:26:47;;;;;;;;;;;;;;;18.89;44.87;100589.16;5131895;27;19946;-54
2023/01/11 00:29:13;;;;;;;;;;;;;;;18.89;44.71;100591.91;5142607;27;19971;-54
2023/01/11 00:31:38;;;;;;;;;;;;;;;18.88;45.04;100584.75;5134016;27;19946;-53
2023/01/11 00:34:04;;;;;;;;;;;;;;;18.88;44.98;100582.00;5152691;27;19972;-54
2023/01/11 00:36:29;;;;;;;;;;;;;;;18.89;44.69;100593.84;5149664;27;20298;-53
2023/01/11 00:38:55;;;;;;;;;;;;;;;18.88;44.73;100583.94;5131646;27;19927;-52
2023/01/11 00:49:39;;;;;;;;;;;;;;;18.89;44.82;100580.06;5102193;28;19938;-53
2023/01/11 00:52:07;;;;;;;;;;;;;;;18.89;44.57;100569.00;5130780;27;19927;-53
2023/01/11 00:54:34;;;;;;;;;;;;;;;18.88;44.86;100561.84;5137040;27;19923;-53
2023/01/11 00:57:00;;;;;;;;;;;;;;;18.88;44.97;100564.63;5159497;27;20297;-52
2023/01/11 00:59:26;;;;;;;;;;;;;;;18.87;44.86;100561.03;5125567;27;20009;-51
2023/01/11 01:01:51;;;;;;;;;;;;;;;18.88;44.89;100572.88;5152049;27;19930;-54
2023/01/11 01:04:17;;;;;;;;;;;;;;;18.87;44.99;100563.78;5151919;27;19923;-54
2023/01/11 01:06:42;;;;;;;;;;;;;;;18.87;44.79;100561.03;5147721;27;19934;-52
2023/01/11 01:09:08;;;;;;;;;;;;;;;18.87;44.80;100560.19;5131069;27;19927;-52
2023/01/11 01:11:34;;;;;;;;;;;;;;;18.88;44.77;100561.84;5131067;28;19923;-51
2023/01/11 01:14:32;;;;;;;;;;;;;;;18.87;44.79;100555.50;5131197;28;19939;-52
2023/01/11 01:16:46;;;;;;;;;;;;;;;18.86;44.78;100556.59;5101765;27;20012;-53
2023/01/11 01:19:11;;;;;;;;;;;;;;;18.86;44.76;100548.31;5149620;27;19963;-53
2023/01/11 01:21:37;;;;;;;;;;;;;;;18.87;44.80;100546.38;5152092;27;19923;-51
2023/01/11 01:24:02;;;;;;;;;;;;;;;18.85;44.98;100541.16;5151637;27;19927;-54
2023/01/11 01:26:28;;;;;;;;;;;;;;;18.87;45.07;100546.38;5149475;27;19923;-54
2023/01/11 01:28:54;;;;;;;;;;;;;;;18.86;44.71;100537.28;5138832;27;20374;-55
2023/01/11 01:31:19;;;;;;;;;;;;;;;18.86;45.06;100533.72;5151668;27;19927;-54
2023/01/11 01:33:45;;;;;;;;;;;;;;;18.86;44.81;100530.94;5151620;27;20340;-51
2023/01/11 01:36:10;;;;;;;;;;;;;;;18.86;44.85;100530.94;5151897;27;20260;-52
2023/01/11 01:38:36;;;;;;;;;;;;;;;18.85;44.80;100524.63;5130786;27;19923;-51
2023/01/11 01:41:03;;;;;;;;;;;;;;;18.86;44.78;100528.19;5130588;28;20367;-51
2023/01/11 01:43:45;;;;;;;;;;;;;;;18.86;44.79;100530.94;5133490;27;19959;-53
2023/01/11 01:46:13;;;;;;;;;;;;;;;18.86;45.03;100529.00;5151485;27;19923;-53
2023/01/11 01:48:38;;;;;;;;;;;;;;;18.86;45.13;100529.00;5145661;27;20316;-53
2023/01/11 01:51:04;;;;;;;;;;;;;;;18.85;44.83;100526.56;5151662;27;19923;-53
2023/01/11 01:53:35;;;;;;;;;;;;;;;18.85;44.81;100519.09;5131873;27;19973;-54
2023/01/11 01:56:02;;;;;;;;;;;;;;;18.84;44.87;100528.50;5151326;27;19943;-53
2023/01/11 01:58:29;;;;;;;;;;;;;;;18.85;44.92;100527.38;5151019;27;19965;-54
2023/01/11 02:00:55;;;;;;;;;;;;;;;18.84;44.92;100522.97;5151013;27;20032;-53
2023/01/11 02:03:21;;;;;;;;;;;;;;;18.86;44.98;100528.19;5132388;27;20279;-53
2023/01/11 02:05:47;;;;;;;;;;;;;;;18.84;44.83;100527.66;5151261;27;19923;-53
2023/01/11 02:08:16;;;;;;;;;;;;;;;18.84;44.85;100524.91;5150527;27;19923;-54
2023/01/11 02:10:42;;;;;;;;;;;;;;;18.84;44.83;100525.72;5132581;27;19962;-53
2023/01/11 02:13:08;;;;;;;;;;;;;;;18.84;44.94;100528.50;5132491;27;20294;-53
2023/01/11 02:15:34;;;;;;;;;;;;;;;18.84;45.18;100524.91;5150867;27;19969;-52
2023/01/11 02:17:59;;;;;;;;;;;;;;;18.84;44.85;100524.91;5150973;27;19927;-54
2023/01/11 02:20:35;;;;;;;;;;;;;;;18.84;45.15;100520.22;5150800;27;19927;-51
2023/01/11 02:23:19;;;;;;;;;;;;;;;18.83;45.04;100515.81;5150927;27;19931;-53
2023/01/11 02:25:50;;;;;;;;;;;;;;;18.84;45.02;100509.19;5132402;27;20015;-51
2023/01/11 02:28:21;;;;;;;;;;;;;;;18.83;45.19;100504.78;5150483;27;19969;-55
2023/01/11 02:31:05;;;;;;;;;;;;;;;18.84;44.89;100495.38;5150701;27;19927;-54
2023/01/11 02:33:37;;;;;;;;;;;;;;;18.83;44.84;100495.69;5150522;27;20003;-54
2023/01/11 02:36:12;;;;;;;;;;;;;;;18.83;44.97;100476.38;5131389;27;19935;-54
2023/01/11 02:38:41;;;;;;;;;;;;;;;18.83;44.96;100482.72;5150527;27;20315;-54
2023/01/11 02:41:27;;;;;;;;;;;;;;;18.84;44.88;100478.00;5150781;27;19972;-51
2023/01/11 02:46:45;;;;;;;;;;;;;;;18.83;45.05;100481.88;5097665;27;19974;-53
2023/01/11 02:49:12;;;;;;;;;;;;;;;18.83;44.88;100476.38;5130021;27;19927;-51
2023/01/11 02:51:39;;;;;;;;;;;;;;;18.83;45.01;100470.84;5111517;28;20415;-53
2023/01/11 02:54:05;;;;;;;;;;;;;;;18.83;44.95;100471.69;5162927;27;20366;-52
2023/01/11 02:56:32;;;;;;;;;;;;;;;18.82;44.91;100470.00;5147481;27;19926;-54
2023/01/11 02:58:59;;;;;;;;;;;;;;;18.82;45.31;100467.25;5138350;27;19969;-53
2023/01/11 03:01:25;;;;;;;;;;;;;;;18.82;45.05;100464.47;5132298;27;20036;-54
2023/01/11 03:03:51;;;;;;;;;;;;;;;18.83;45.13;100465.34;5150370;27;20336;-52
2023/01/11 03:06:17;;;;;;;;;;;;;;;18.82;45.20;100450.69;5149889;27;19946;-54
2023/01/11 03:09:03;;;;;;;;;;;;;;;18.82;44.93;100456.22;5129487;27;19923;-54
2023/01/11 03:14:54;;;;;;;;;;;;;;;18.81;44.97;100443.53;5102951;27;19923;-54
2023/01/11 03:17:39;;;;;;;;;;;;;;;18.81;45.17;100446.28;5117535;27;20403;-54
2023/01/11 03:20:08;;;;;;;;;;;;;;;18.82;44.96;100447.13;5117258;28;20363;-52
2023/01/11 03:22:54;;;;;;;;;;;;;;;18.82;45.01;100450.69;5131505;27;19973;-53
2023/01/11 03:25:27;;;;;;;;;;;;;;;18.81;44.97;100454.56;5138017;27;19923;-53
2023/01/11 03:27:55;;;;;;;;;;;;;;;18.81;44.96;100454.56;5153623;27;20541;-53
2023/01/11 03:30:24;;;;;;;;;;;;;;;18.82;45.08;100455.38;5132783;28;19934;-52
2023/01/11 03:32:51;;;;;;;;;;;;;;;18.81;44.93;100454.56;5132978;28;19959;-51
2023/01/11 03:35:22;;;;;;;;;;;;;;;18.81;45.27;100451.81;5132871;28;19923;-54
2023/01/11 03:40:31;;;;;;;;;;;;;;;18.80;45.39;100448.22;5190046;27;20397;-54
2023/01/11 03:43:12;;;;;;;;;;;;;;;18.81;45.17;100454.56;5182809;27;19938;-52
2023/01/11 03:45:43;;;;;;;;;;;;;;;18.80;45.25;100452.94;5168660;27;19962;-50
2023/01/11 03:48:10;;;;;;;;;;;;;;;18.81;45.26;100438.00;5166338;27;20286;-50
2023/01/11 03:50:36;;;;;;;;;;;;;;;18.80;45.01;100441.91;5189681;27;19926;-51
2023/01/11 03:53:03;;;;;;;;;;;;;;;18.80;45.03;100439.97;5196783;27;19929;-48
2023/01/11 03:55:29;;;;;;;;;;;;;;;18.80;45.15;100431.69;5210212;27;19926;-48
2023/01/11 03:57:54;;;;;;;;;;;;;;;18.79;45.14;100430.03;5181275;27;19923;-51
2023/01/11 04:00:21;;;;;;;;;;;;;;;18.80;45.00;100423.41;5166936;27;19987;-51
2023/01/11 04:02:46;;;;;;;;;;;;;;;18.80;45.30;100428.91;5146181;27;19963;-54
2023/01/11 04:05:12;;;;;;;;;;;;;;;18.80;45.27;100419.81;5147600;27;19930;-51
2023/01/11 04:07:37;;;;;;;;;;;;;;;18.80;45.15;100420.66;5159265;27;19935;-51
2023/01/11 04:10:03;;;;;;;;;;;;;;;18.79;45.04;100418.19;5168521;27;19927;-49
2023/01/11 04:12:29;;;;;;;;;;;;;;;18.80;44.97;100419.81;5166824;27;19923;-49
2023/01/11 04:14:54;;;;;;;;;;;;;;;18.79;45.11;100415.44;5168113;27;20338;-53
2023/01/11 04:17:20;;;;;;;;;;;;;;;18.80;45.04;100411.56;5167985;27;19927;-51
2023/01/11 04:19:46;;;;;;;;;;;;;;;18.80;45.14;100417.06;5168216;27;19930;-49
2023/01/11 04:22:11;;;;;;;;;;;;;;;18.79;45.38;100413.50;5166718;27;19922;-52
2023/01/11 04:24:37;;;;;;;;;;;;;;;18.79;45.06;100413.50;5167240;27;19923;-50
2023/01/11 04:27:02;;;;;;;;;;;;;;;18.79;45.36;100401.63;5167532;27;19923;-51
2023/01/11 04:29:28;;;;;;;;;;;;;;;18.78;45.13;100406.34;5167452;27;19934;-50
2023/01/11 04:31:53;;;;;;;;;;;;;;;18.79;45.07;100407.97;5167852;27;20486;-52
2023/01/11 04:34:19;;;;;;;;;;;;;;;18.78;45.42;100403.56;5167816;27;19927;-51
2023/01/11 04:36:45;;;;;;;;;;;;;;;18.78;45.25;100399.97;5149165;27;19930;-49
2023/01/11 04:39:10;;;;;;;;;;;;;;;18.79;45.10;100393.38;5167697;27;19949;-49
2023/01/11 04:44:22;;;;;;;;;;;;;;;18.79;45.41;100398.88;5162211;27;20272;-52
2023/01/11 04:46:47;;;;;;;;;;;;;;;18.79;45.40;100396.13;5179003;27;20417;-51
2023/01/11 04:49:13;;;;;;;;;;;;;;;18.78;45.06;100399.97;5146906;27;20025;-52
2023/01/11 04:51:38;;;;;;;;;;;;;;;18.78;45.14;100400.81;5116082;28;19958;-49
2023/01/11 04:54:04;;;;;;;;;;;;;;;18.78;45.10;100400.81;5132588;28;19923;-51
2023/01/11 04:56:30;;;;;;;;;;;;;;;18.78;45.40;100405.47;5133024;27;19923;-49
2023/01/11 04:58:55;;;;;;;;;;;;;;;18.77;45.25;100399.16;5140595;27;20087;-52
2023/01/11 05:01:21;;;;;;;;;;;;;;;18.79;45.12;100404.41;5153874;27;19954;-51
2023/01/11 05:03:46;;;;;;;;;;;;;;;18.78;45.20;100405.47;5153645;27;19923;-51
2023/01/11 05:06:12;;;;;;;;;;;;;;;18.78;45.13;100400.81;5153053;27;20398;-51
2023/01/11 05:08:38;;;;;;;;;;;;;;;18.77;45.51;100399.16;5114316;28;20321;-50
2023/01/11 05:11:05;;;;;;;;;;;;;;;18.78;45.13;100397.22;5132649;28;19923;-53
2023/01/11 05:13:45;;;;;;;;;;;;;;;18.77;45.41;100399.16;5114334;28;19924;-49
2023/01/11 05:16:13;;;;;;;;;;;;;;;18.77;45.30;100392.81;5132744;28;19963;-51
2023/01/11 05:18:40;;;;;;;;;;;;;;;18.78;45.42;100403.56;5132291;27;19927;-51
2023/01/11 05:21:05;;;;;;;;;;;;;;;18.77;45.21;100407.41;5132512;28;19923;-51
2023/01/11 05:23:32;;;;;;;;;;;;;;;18.78;45.14;100402.72;5113540;28;19927;-49
2023/01/11 05:25:57;;;;;;;;;;;;;;;18.77;45.38;100399.16;5147235;27;19966;-48
2023/01/11 05:28:23;;;;;;;;;;;;;;;18.77;45.46;100409.38;5138055;27;19935;-51
2023/01/11 05:30:50;;;;;;;;;;;;;;;18.77;45.19;100398.31;5151958;27;19927;-51
2023/01/11 05:33:15;;;;;;;;;;;;;;;18.77;45.22;100407.41;5152406;27;20446;-49
2023/01/11 05:35:41;;;;;;;;;;;;;;;18.77;45.23;100399.16;5152901;27;19931;-51
2023/01/11 05:38:07;;;;;;;;;;;;;;;18.77;45.39;100401.91;5136825;27;19923;-55
2023/01/11 05:40:32;;;;;;;;;;;;;;;18.77;45.30;100407.41;5131523;28;19923;-51
2023/01/11 05:42:58;;;;;;;;;;;;;;;18.77;45.42;100403.84;5112963;28;20313;-53
2023/01/11 05:45:31;;;;;;;;;;;;;;;18.77;45.38;100406.59;5170968;27;19933;-53
2023/01/11 05:47:56;;;;;;;;;;;;;;;18.77;45.22;100403.84;5144464;27;19976;-52
2023/01/11 05:50:22;;;;;;;;;;;;;;;18.77;45.46;100410.19;5132189;28;19923;-54
2023/01/11 05:52:47;;;;;;;;;;;;;;;18.77;45.28;100406.59;5132165;28;19927;-54
2023/01/11 05:55:13;;;;;;;;;;;;;;;18.80;44.85;100404.09;5131724;28;19932;-56
2023/01/11 05:57:40;;;;;;;;;;;;;;;18.84;45.99;100403.53;5131719;27;20083;-55
2023/01/11 06:00:06;;;;;;;;;;;;;;;18.83;45.78;100399.13;5140654;27;20063;-53
2023/01/11 06:02:33;;;;;;;;;;;;;;;18.83;46.33;100396.38;5133179;27;20029;-51
2023/01/11 06:04:58;;;;;;;;;;;;;;;18.80;46.22;100395.81;5130772;27;19924;-53
2023/01/11 06:07:24;;;;;;;;;;;;;;;18.80;46.06;100392.25;5136713;27;19923;-52
2023/01/11 06:09:49;;;;;;;;;;;;;;;18.80;46.09;100393.06;5137192;27;19957;-55
2023/01/11 06:12:15;;;;;;;;;;;;;;;18.80;46.01;100387.53;5144310;27;19934;-54
2023/01/11 06:14:41;;;;;;;;;;;;;;;18.81;46.08;100393.88;5133954;27;20429;-52
2023/01/11 06:17:06;;;;;;;;;;;;;;;18.82;46.25;100397.44;5135434;27;19930;-52
2023/01/11 06:19:32;;;;;;;;;;;;;;;18.80;46.21;100387.53;5142118;27;20325;-54
2023/01/11 06:21:57;;;;;;;;;;;;;;;18.81;45.86;100393.88;5129821;27;19954;-53
2023/01/11 06:24:23;;;;;;;;;;;;;;;18.82;46.05;100394.69;5137950;27;20306;-53
2023/01/11 06:26:51;;;;;;;;;;;;;;;18.82;46.16;100395.50;5138709;27;19983;-52
2023/01/11 06:29:16;;;;;;;;;;;;;;;18.83;46.14;100396.38;5137505;27;19931;-54
2023/01/11 06:31:42;;;;;;;;;;;;;;;18.42;47.46;100402.19;5146750;27;19977;-52
2023/01/11 06:34:08;;;;;;;;;;;;;;;18.68;46.57;100403.63;5128909;27;19931;-53
2023/01/11 06:36:35;;;;;;;;;;;;;;;18.75;46.53;100398.63;5138530;27;20410;-53
2023/01/11 06:39:01;;;;;;;;;;;;;;;18.80;46.15;100403.28;5133495;27;20078;-54
2023/01/11 06:41:27;;;;;;;;;;;;;;;18.81;46.40;100391.13;5138788;27;19930;-53
2023/01/11 06:43:53;;;;;;;;;;;;;;;18.83;46.28;100397.19;5133181;27;19974;-55
2023/01/11 06:46:18;;;;;;;;;;;;;;;18.63;46.90;100405.63;5143162;27;19927;-52
2023/01/11 06:48:44;;;;;;;;;;;;;;;18.59;47.88;100410.88;5148165;27;19969;-57
2023/01/11 06:51:10;;;;;;;;;;;;;;;18.74;47.00;100410.78;5123771;27;20282;-56
2023/01/11 06:53:36;;;;;;;;;;;;;;;18.79;47.37;100405.22;5121899;27;19959;-49
2023/01/11 06:56:01;;;;;;;;;;;;;;;18.75;47.33;100428.16;5139506;27;19923;-54
2023/01/11 06:58:27;;;;;;;;;;;;;;;18.80;47.30;100428.91;5137824;27;19937;-53
2023/01/11 07:00:53;;;;;;;;;;;;;;;18.83;46.98;100438.56;5141824;27;19931;-55
2023/01/11 07:03:19;;;;;;;;;;;;;;;18.85;46.81;100432.75;5131915;27;19923;-54
2023/01/11 07:05:45;;;;;;;;;;;;;;;18.85;46.87;100439.09;5130113;27;19943;-52
2023/01/11 07:08:11;;;;;;;;;;;;;;;18.86;46.70;100446.25;5136715;27;19931;-53
2023/01/11 07:10:36;;;;;;;;;;;;;;;18.87;46.69;100444.31;5147082;27;19927;-51
2023/01/11 07:13:02;;;;;;;;;;;;;;;18.88;46.61;100445.97;5148262;27;19927;-52
2023/01/11 07:15:27;;;;;;;;;;;;;;;18.88;47.03;100454.25;5139080;27;19931;-54
2023/01/11 07:17:54;;;;;;;;;;;;;;;18.88;46.73;100457.00;5121341;27;19938;-55
2023/01/11 07:20:20;;;;;;;;;;;;;;;18.89;46.60;100453.13;5120644;27;19974;-54
2023/01/11 07:22:45;;;;;;;;;;;;;;;18.88;46.97;100460.59;5141753;27;19927;-53
2023/01/11 07:25:11;;;;;;;;;;;;;;;18.89;46.55;100464.16;5142432;27;19979;-54
2023/01/11 07:27:37;;;;;;;;;;;;;;;18.89;46.93;100469.69;5132469;27;19930;-52
2023/01/11 07:30:02;;;;;;;;;;;;;;;18.90;46.70;100476.84;5136711;27;19931;-52
2023/01/11 07:32:28;;;;;;;;;;;;;;;18.89;46.80;100483.47;5136903;27;19924;-53
2023/01/11 07:34:54;;;;;;;;;;;;;;;18.89;46.79;100470.50;5126076;27;19927;-53
2023/01/11 07:37:19;;;;;;;;;;;;;;;18.89;46.77;100464.97;5134261;27;20268;-55
2023/01/11 07:39:54;;;;;;;;;;;;;;;18.90;46.78;100479.59;5120959;27;20477;-56
2023/01/11 07:45:06;;;;;;;;;;;;;;;18.90;46.53;100479.59;5121121;27;20019;-54
2023/01/11 07:47:31;;;;;;;;;;;;;;;18.90;46.78;100457.53;5126409;27;20008;-54
2023/01/11 07:49:57;;;;;;;;;;;;;;;18.91;46.58;100461.91;5134445;27;20312;-54
2023/01/11 07:56:15;;;;;;;;;;;;;;;18.89;46.58;100467.75;5116361;27;19988;-53
2023/01/11 07:58:40;;;;;;;;;;;;;;;18.91;46.78;100490.38;5119752;27;20025;-53
2023/01/11 08:01:06;;;;;;;;;;;;;;;18.91;46.63;100486.75;5126982;27;19979;-54
2023/01/11 08:03:32;;;;;;;;;;;;;;;18.92;46.63;100499.47;5117579;27;20331;-54
2023/01/11 08:05:57;;;;;;;;;;;;;;;18.92;46.75;100499.47;5109990;27;19934;-54
2023/01/11 08:08:23;;;;;;;;;;;;;;;18.92;46.76;100500.28;5107477;27;20121;-51
2023/01/11 08:14:37;;;;;;;;;;;;;;;18.93;47.38;100507.44;5115320;27;20195;-51
2023/01/11 08:16:19;;;;;;;;;;;;;;;18.93;47.24;100518.47;5113764;27;19928;-53
2023/01/11 08:18:45;;;;;;;;;;;;;;;18.93;47.04;100517.66;5130013;27;20272;-54
2023/01/11 08:21:11;;;;;;;;;;;;;;;18.95;46.89;100518.19;5133194;27;19927;-52
2023/01/11 08:23:39;;;;;;;;;;;;;;;18.93;47.19;100509.38;5130161;27;20449;-53
2023/01/11 08:26:04;;;;;;;;;;;;;;;18.93;47.03;100528.69;5127094;27;19932;-53
2023/01/11 08:28:30;;;;;;;;;;;;;;;18.93;47.13;100512.97;5136594;27;19934;-52
2023/01/11 08:30:55;;;;;;;;;;;;;;;18.92;47.02;100518.78;5140058;27;19931;-55
2023/01/11 08:33:21;;;;;;;;;;;;;;;18.93;46.88;100542.50;5133797;27;19931;-53
2023/01/11 08:35:47;;;;;;;;;;;;;;;18.94;47.15;100566.22;5135633;27;20259;-54
2023/01/11 08:38:12;;;;;;;;;;;;;;;18.93;47.48;100576.44;5134094;27;19923;-53
2023/01/11 08:40:38;;;;;;;;;;;;;;;18.95;47.71;100581.66;5137593;27;20036;-53
2023/01/11 08:43:04;;;;;;;;;;;;;;;18.94;47.03;100582.75;5114639;27;19941;-52
2023/01/11 08:45:29;;;;;;;;;;;;;;;18.94;47.02;100580.81;5128131;27;19924;-55
2023/01/11 08:47:55;;;;;;;;;;;;;;;18.93;47.10;100570.09;5135216;27;19927;-54
2023/01/11 08:50:20;;;;;;;;;;;;;;;18.78;48.61;100574.63;5132464;27;19938;-55
2023/01/11 08:52:49;;;;;;;;;;;;;;;18.90;47.79;100576.16;5132963;27;20263;-53
2023/01/11 08:55:15;;;;;;;;;;;;;;;18.93;47.51;100587.47;5134470;27;19932;-52
2023/01/11 08:57:40;;;;;;;;;;;;;;;18.95;47.67;100587.97;5136234;27;19979;-53
2023/01/11 09:00:06;;;;;;;;;;;;;;;18.96;47.33;100578.63;5131603;27;19931;-53
2023/01/11 09:02:32;;;;;;;;;;;;;;;18.96;47.26;100588.84;5125688;27;20401;-53
2023/01/11 09:04:57;;;;;;;;;;;;;;;18.97;47.41;100610.63;5128386;27;19935;-56
2023/01/11 09:07:23;;;;;;;;;;;;;;;18.96;47.57;100621.94;5120217;27;19931;-54
2023/01/11 09:09:49;;;;;;;;;;;;;;;19.04;47.38;100619.41;5121804;27;19943;-58
2023/01/11 09:12:14;;;;;;;;;;;;;;;19.03;47.17;100636.22;5122332;27;19978;-57
2023/01/11 09:14:40;;;;;;;;;;;;;;;19.02;47.15;100637.34;5126125;27;19927;-58
2023/01/11 09:17:06;;;;;;;;;;;;;;;19.00;47.44;100645.94;5129686;27;19927;-57
2023/01/11 09:19:32;;;;;;;;;;;;;;;19.00;47.50;100640.41;5127611;27;19987;-57
2023/01/11 09:22:00;;;;;;;;;;;;;;;19.00;47.89;100640.41;5127021;27;19923;-58
2023/01/11 09:24:26;;;;;;;;;;;;;;;19.01;48.91;100652.25;5114165;27;19972;-53
2023/01/11 09:26:52;;;;;;;;;;;;;;;18.67;51.59;100649.41;5126693;27;19927;-53
2023/01/11 09:29:17;;;;;;;;;;;;;;;18.89;49.55;100660.06;5123874;27;19927;-57
2023/01/11 09:31:43;;;;;;;;;;;;;;;18.77;50.94;100655.72;5134460;27;20379;-57
2023/01/11 09:34:11;;;;;;;;;;;;;;;18.90;50.27;100659.78;5121876;27;19931;-57
2023/01/11 09:36:38;;;;;;;;;;;;;;;18.96;49.33;100675.19;5129462;27;19931;-57
2023/01/11 09:39:07;;;;;;;;;;;;;;;18.98;49.36;100666.63;5108313;27;20777;-57
2023/01/11 09:41:37;;;;;;;;;;;;;;;18.98;49.20;100670.22;5091289;27;19931;-57
2023/01/11 09:44:10;;;;;;;;;;;;;;;19.00;48.84;100673.53;5126469;27;20590;-57
2023/01/11 09:46:38;;;;;;;;;;;;;;;19.01;48.66;100686.19;5131972;27;20381;-57
2023/01/11 09:49:06;;;;;;;;;;;;;;;18.68;50.00;100681.38;5123190;27;19931;-57
2023/01/11 09:51:32;;;;;;;;;;;;;;;18.90;49.14;100681.03;5122472;27;20202;-57
2023/01/11 09:54:00;;;;;;;;;;;;;;;18.96;48.96;100699.22;5098709;27;19968;-57
2023/01/11 09:56:30;;;;;;;;;;;;;;;18.99;49.05;100704.97;5119646;27;19963;-57
2023/01/11 09:59:19;;;;;;;;;;;;;;;18.99;48.85;100699.44;5103193;27;19931;-57
2023/01/11 10:01:48;;;;;;;;;;;;;;;18.99;48.82;100699.44;5111800;27;19966;-57
2023/01/11 10:04:24;;;;;;;;;;;;;;;19.01;48.51;100705.53;5124949;27;20689;-57
2023/01/11 10:07:11;;;;;;;;;;;;;;;19.00;48.58;100698.38;5131221;27;19958;-58
2023/01/11 10:09:40;;;;;;;;;;;;;;;19.01;48.48;100712.97;5113221;27;20526;-57
2023/01/11 10:12:46;;;;;;;;;;;;;;;19.01;48.46;100711.03;5116846;27;19927;-57
2023/01/11 10:15:36;;;;;;;;;;;;;;;19.01;48.31;100719.31;5108556;27;19927;-57
2023/01/11 10:18:26;;;;;;;;;;;;;;;19.02;48.02;100734.75;5116163;27;19931;-57
2023/01/11 10:21:16;;;;;;;;;;;;;;;19.02;48.70;100723.72;5117091;27;19927;-46
2023/01/11 10:23:48;;;;;;;;;;;;;;;19.03;48.75;100719.84;5134650;27;19927;-57
2023/01/11 10:26:23;;;;;;;;;;;;;;;19.05;48.51;100728.69;5112637;27;19958;-57
2023/01/11 10:29:16;;;;;;;;;;;;;;;19.04;48.19;100734.47;5138893;27;19927;-57
2023/01/11 10:34:55;;;;;;;;;;;;;;;19.05;48.45;100744.41;5156715;27;19925;-55
2023/01/11 10:38:06;;;;;;;;;;;;;;;19.04;48.31;100740.84;5145552;27;20051;-55
2023/01/11 10:40:30;;;;;;;;;;;;;;;19.03;48.40;100735.59;5118767;27;19927;-55
2023/01/11 10:43:02;;;;;;;;;;;;;;;19.04;48.19;100749.13;5126793;27;19924;-55
2023/01/11 10:45:32;;;;;;;;;;;;;;;19.04;48.25;100748.28;5131836;27;19954;-55
2023/01/11 10:48:00;;;;;;;;;;;;;;;19.04;48.41;100746.38;5149925;27;19980;-54
2023/01/11 10:50:27;;;;;;;;;;;;;;;19.04;48.65;100745.50;5155838;27;20513;-54
2023/01/11 10:53:13;;;;;;;;;;;;;;;19.06;48.35;100743.31;5157606;27;19966;-52
2023/01/11 10:56:00;;;;;;;;;;;;;;;19.03;49.04;100749.38;5139360;27;20500;-55
2023/01/11 10:58:35;;;;;;;;;;;;;;;19.05;48.96;100750.75;5136370;27;19927;-55
2023/01/11 11:04:03;;;;;;;;;;;;;;;18.90;49.58;100739.78;5171186;27;19953;-54
2023/01/11 11:06:32;;;;;;;;;;;;;;;18.55;50.76;100737.97;5142649;27;19926;-55
2023/01/11 11:09:06;;;;;;;;;;;;;;;18.56;50.84;100731.34;5161379;27;20285;-56
2023/01/11 11:11:34;;;;;;;;;;;;;;;18.52;50.90;100730.25;5158733;27;20456;-55
2023/01/11 11:14:01;;;;;;;;;;;;;;;18.34;50.71;100730.88;5150456;27;21760;-55
2023/01/11 11:16:32;;;;;;;;;;;;;;;18.33;51.10;100738.31;5142094;27;19972;-55
2023/01/11 11:18:58;;;;;;;;;;;;;;;18.33;50.94;100743.00;5162852;27;19951;-55
2023/01/11 11:21:27;;;;;;;;;;;;;;;18.35;50.88;100749.06;5156088;27;19927;-55
2023/01/11 11:23:54;;;;;;;;;;;;;;;18.33;50.84;100751.28;5146224;27;24517;-55
2023/01/11 11:26:20;;;;;;;;;;;;;;;18.21;50.94;100755.16;5158684;27;19930;-55
2023/01/11 11:29:03;;;;;;;;;;;;;;;18.23;51.04;100754.91;5155016;27;19968;-54
2023/01/11 11:31:29;;;;;;;;;;;;;;;18.52;50.19;100752.31;5130557;27;19934;-44
2023/01/11 11:33:54;;;;;;;;;;;;;;;18.66;50.11;100753.41;5148469;27;19931;-48
2023/01/11 11:36:20;;;;;;;;;;;;;;;18.82;49.58;100753.34;5158205;27;20426;-45
2023/01/11 11:39:05;;;;;;;;;;;;;;;18.89;49.24;100745.59;5156512;27;20018;-51
2023/01/11 11:41:32;;;;;;;;;;;;;;;18.94;49.01;100737.28;5131454;27;19938;-44
2023/01/11 11:44:07;;;;;;;;;;;;;;;18.97;49.22;100743.06;5149678;27;19932;-43
2023/01/11 11:46:32;;;;;;;;;;;;;;;19.00;48.98;100761.00;5152598;27;19938;-45
2023/01/11 11:49:15;;;;;;;;;;;;;;;19.01;49.06;100754.38;5156250;27;19923;-46
2023/01/11 11:51:42;;;;;;;;;;;;;;;18.87;50.66;100764.34;5161999;27;19923;-51
2023/01/11 11:54:27;;;;;;;;;;;;;;;18.96;49.22;100766.28;5156535;27;19962;-44
2023/01/11 11:56:53;;;;;;;;;;;;;;;19.01;48.94;100763.47;5145360;27;20436;-46
2023/01/11 11:59:19;;;;;;;;;;;;;;;19.02;49.19;100756.84;5135896;27;19974;-46
2023/01/11 12:01:46;;;;;;;;;;;;;;;19.03;48.86;100765.94;5142322;27;19923;-46
2023/01/11 12:04:13;;;;;;;;;;;;;;;19.05;49.03;100770.09;5161958;27;19927;-49
2023/01/11 12:06:38;;;;;;;;;;;;;;;19.04;48.69;100757.41;5163168;27;20293;-46
2023/01/11 12:09:08;;;;;;;;;;;;;;;19.06;48.72;100776.44;5161768;27;20429;-45
2023/01/11 12:11:34;;;;;;;;;;;;;;;19.07;48.90;100768.97;5143975;27;19970;-45
2023/01/11 12:14:02;;;;;;;;;;;;;;;19.07;48.66;100772.56;5154230;27;19931;-45
2023/01/11 12:16:29;;;;;;;;;;;;;;;19.08;48.63;100784.41;5121673;27;19962;-45
2023/01/11 12:18:55;;;;;;;;;;;;;;;19.04;48.60;100786.91;5131008;27;20607;-44
2023/01/11 12:21:21;;;;;;;;;;;;;;;19.07;48.72;100783.59;5146786;27;20256;-45
2023/01/11 12:23:47;;;;;;;;;;;;;;;19.07;48.62;100775.31;5144445;27;20432;-44
2023/01/11 12:26:15;;;;;;;;;;;;;;;19.08;48.74;100767.84;5140934;27;19927;-47
2023/01/11 12:28:59;;;;;;;;;;;;;;;19.10;48.53;100772.00;5134510;27;19971;-46
2023/01/11 12:31:29;;;;;;;;;;;;;;;19.10;48.44;100769.22;5132888;27;20031;-45
2023/01/11 12:34:15;;;;;;;;;;;;;;;18.94;47.45;100773.16;5131538;27;19962;-56
2023/01/11 12:37:00;;;;;;;;;;;;;;;18.70;48.00;100773.81;5126370;27;20228;-53
2023/01/11 12:39:29;;;;;;;;;;;;;;;18.95;48.08;100774.81;5123163;27;19957;-53
2023/01/11 12:41:57;;;;;;;;;;;;;;;19.03;47.64;100769.53;5136119;27;20331;-53
2023/01/11 12:44:43;;;;;;;;;;;;;;;19.06;47.88;100770.91;5137396;27;20232;-53
2023/01/11 12:47:14;;;;;;;;;;;;;;;19.07;47.89;100761.50;5121417;27;19974;-52
2023/01/11 12:49:45;;;;;;;;;;;;;;;18.48;47.58;100762.25;5137716;27;19937;-57
2023/01/11 12:52:30;;;;;;;;;;;;;;;18.86;47.54;100760.78;5138356;27;19927;-54
2023/01/11 12:55:19;;;;;;;;;;;;;;;19.00;47.68;100766.53;5122448;27;19927;-53
2023/01/11 12:58:06;;;;;;;;;;;;;;;19.12;47.35;100778.03;5128378;27;19927;-53
2023/01/11 13:03:32;;;;;;;;;;;;;;;19.12;47.88;100788.25;5158792;27;19929;-53
2023/01/11 13:06:18;;;;;;;;;;;;;;;19.12;47.55;100791.03;5118120;27;20410;-54
2023/01/11 13:08:48;;;;;;;;;;;;;;;19.12;47.90;100800.13;5111324;27;20436;-53
2023/01/11 13:11:33;;;;;;;;;;;;;;;19.13;47.72;100796.28;5138116;27;20111;-53
2023/01/11 13:14:06;;;;;;;;;;;;;;;19.12;47.79;100802.88;5137674;27;19974;-54
2023/01/11 13:16:34;;;;;;;;;;;;;;;19.13;47.44;100799.03;5130178;27;19951;-53
2023/01/11 13:19:03;;;;;;;;;;;;;;;18.78;47.49;100798.06;5114364;27;19928;-57
2023/01/11 13:21:31;;;;;;;;;;;;;;;18.50;48.09;100799.50;5127115;27;19997;-57